createdAt,value
2023-03-21T00:01:54.040Z,101186.56
2023-03-21T00:04:24.448Z,101203.03
2023-03-21T00:06:52.064Z,101194.16
2023-03-21T00:09:19.843Z,101194.63
2023-03-21T00:11:47.760Z,101189.16
2023-03-21T00:14:20.003Z,101194.50
2023-03-21T00:16:52.243Z,101192.53
2023-03-21T00:19:26.464Z,101177.63
2023-03-21T00:22:07.034Z,101188.94
2023-03-21T00:24:36.073Z,101187.06
2023-03-21T00:27:26.900Z,101188.34
2023-03-21T00:29:50.656Z,101184.03
2023-03-21T00:32:19.925Z,101179.13
2023-03-21T00:35:01.554Z,101189.28
2023-03-21T00:37:35.955Z,101179.03
2023-03-21T00:40:16.351Z,101176.59
2023-03-21T00:42:46.711Z,101171.00
2023-03-21T00:45:13.800Z,101170.75
2023-03-21T00:47:41.120Z,101176.94
2023-03-21T00:50:09.268Z,101165.63
2023-03-21T00:52:40.827Z,101170.50
2023-03-21T00:55:21.091Z,101170.28
2023-03-21T00:57:56.190Z,101172.38
2023-03-21T01:00:27.494Z,101167.25
2023-03-21T01:03:14.201Z,101164.56
2023-03-21T01:06:06.736Z,101163.75
2023-03-21T01:08:51.627Z,101169.69
2023-03-21T01:11:25.298Z,101165.38
2023-03-21T01:13:59.813Z,101163.75
2023-03-21T01:16:36.069Z,101174.25
2023-03-21T01:19:09.326Z,101170.41
2023-03-21T01:21:42.489Z,101164.81
2023-03-21T01:24:10.795Z,101162.13
2023-03-21T01:26:38.066Z,101157.09
2023-03-21T01:29:05.922Z,101154.88
2023-03-21T01:31:33.230Z,101161.28
2023-03-21T01:34:00.173Z,101167.59
2023-03-21T01:36:27.694Z,101173.63
2023-03-21T01:39:00.815Z,101163.69
2023-03-21T01:41:44.205Z,101160.31
2023-03-21T01:44:23.329Z,101166.00
2023-03-21T01:47:09.281Z,101169.38
2023-03-21T01:50:03.536Z,101167.25
2023-03-21T01:52:42.538Z,101155.50
2023-03-21T01:55:39.749Z,101156.75
2023-03-21T01:58:27.703Z,101161.31
2023-03-21T02:01:04.622Z,101151.03
2023-03-21T02:03:52.243Z,101153.25
2023-03-21T02:06:47.005Z,101156.41
2023-03-21T02:09:34.915Z,101157.69
2023-03-21T02:12:03.714Z,101163.50
2023-03-21T02:14:35.120Z,101148.94
2023-03-21T02:17:39.614Z,101150.19
2023-03-21T02:20:51.081Z,101149.16
2023-03-21T02:23:49.004Z,101156.59
2023-03-21T02:26:45.113Z,101153.09
2023-03-21T02:29:39.400Z,101154.38
2023-03-21T02:32:38.656Z,101156.00
2023-03-21T02:35:39.218Z,101156.47
2023-03-21T02:39:04.396Z,101148.44
2023-03-21T02:41:52.397Z,101146.81
2023-03-21T02:44:43.262Z,101147.84
2023-03-21T02:47:35.024Z,101155.28
2023-03-21T02:50:30.219Z,101150.97
2023-03-21T02:52:59.030Z,101146.91
2023-03-21T02:55:31.935Z,101166.22
2023-03-21T02:58:12.340Z,101158.19
2023-03-21T03:00:45.225Z,101152.84
2023-03-21T03:03:28.020Z,101145.41
2023-03-21T03:06:03.293Z,101154.84
2023-03-21T03:09:09.158Z,101155.06
2023-03-21T03:11:43.477Z,101148.53
2023-03-21T03:15:01.870Z,101157.16
2023-03-21T03:18:12.785Z,101159.00
2023-03-21T03:21:01.096Z,101157.38
2023-03-21T03:23:39.085Z,101160.06
2023-03-21T03:26:33.650Z,101163.56
2023-03-21T03:29:09.193Z,101158.88
2023-03-21T03:32:05.542Z,101149.41
2023-03-21T03:34:44.201Z,101158.06
2023-03-21T03:37:18.977Z,101155.81
2023-03-21T03:40:06.855Z,101157.06
2023-03-21T03:42:46.654Z,101163.69
2023-03-21T03:45:30.004Z,101157.97
2023-03-21T03:48:11.923Z,101156.81
2023-03-21T03:51:02.458Z,101159.72
2023-03-21T03:53:58.250Z,101161.56
2023-03-21T03:56:29.036Z,101158.66
2023-03-21T03:58:57.574Z,101167.28
2023-03-21T04:01:39.507Z,101163.09
2023-03-21T04:04:13.292Z,101165.56
2023-03-21T04:06:42.209Z,101163.94
2023-03-21T04:09:19.204Z,101159.63
2023-03-21T04:11:48.691Z,101151.69
2023-03-21T04:14:15.775Z,101150.88
2023-03-21T04:16:43.775Z,101154.59
2023-03-21T04:19:11.007Z,101153.41
2023-03-21T04:21:38.257Z,101157.47
2023-03-21T04:24:07.340Z,101157.41
2023-03-21T04:26:35.957Z,101151.59
2023-03-21T04:29:29.680Z,101160.22
2023-03-21T04:31:59.847Z,101157.75
2023-03-21T04:34:29.714Z,101157.53
2023-03-21T04:36:59.804Z,101152.03
2023-03-21T04:39:27.204Z,101154.72
2023-03-21T04:41:54.696Z,101152.03
2023-03-21T04:44:21.901Z,101158.44
2023-03-21T04:46:50.212Z,101160.28
2023-03-21T04:49:19.099Z,101158.88
2023-03-21T04:51:46.285Z,101151.31
2023-03-21T04:54:17.685Z,101144.09
2023-03-21T04:56:44.666Z,101163.19
2023-03-21T04:59:16.104Z,101158.88
2023-03-21T05:01:43.776Z,101163.19
2023-03-21T05:04:13.737Z,101160.16
2023-03-21T05:06:42.776Z,101162.59
2023-03-21T05:09:10.409Z,101163.66
2023-03-21T05:11:41.162Z,101163.44
2023-03-21T05:14:15.216Z,101159.94
2023-03-21T05:16:54.209Z,101164.84
2023-03-21T05:19:40.435Z,101161.34
2023-03-21T05:22:10.715Z,101155.75
2023-03-21T05:24:39.301Z,101159.72
2023-03-21T05:27:09.960Z,101156.22
2023-03-21T05:29:43.152Z,101148.78
2023-03-21T05:32:11.000Z,101152.50
2023-03-21T05:34:37.948Z,101150.78
2023-03-21T05:37:04.864Z,101162.44
2023-03-21T05:39:46.350Z,101160.78
2023-03-21T05:42:21.378Z,101157.06
2023-03-21T05:44:49.420Z,101163.59
2023-03-21T05:47:18.941Z,101163.59
2023-03-21T05:49:47.706Z,101144.06
2023-03-21T05:55:20.639Z,101160.88
2023-03-21T05:57:48.246Z,101154.47
2023-03-21T06:00:22.025Z,101159.59
2023-03-21T06:03:09.441Z,101166.59
2023-03-21T06:05:57.917Z,101161.22
2023-03-21T06:08:29.468Z,101168.59
2023-03-21T06:10:56.626Z,101165.44
2023-03-21T06:13:23.760Z,101161.50
2023-03-21T06:15:50.900Z,101177.47
2023-03-21T06:18:21.907Z,101172.19
2023-03-21T06:21:00.936Z,101171.63
2023-03-21T06:23:27.820Z,101172.66
2023-03-21T06:25:55.206Z,101177.78
2023-03-21T06:28:25.289Z,101170.94
2023-03-21T06:30:52.741Z,101178.88
2023-03-21T06:33:24.854Z,101173.97
2023-03-21T06:35:57.986Z,101177.22
2023-03-21T06:38:26.223Z,101175.16
2023-03-21T06:40:54.105Z,101174.69
2023-03-21T06:43:23.735Z,101181.81
2023-03-21T06:45:51.024Z,101185.28
2023-03-21T06:48:18.163Z,101178.91
2023-03-21T06:50:52.771Z,101176.00
2023-03-21T06:53:30.211Z,101187.06
2023-03-21T06:56:17.387Z,101184.47
2023-03-21T06:58:46.493Z,101182.03
2023-03-21T07:01:42.885Z,101193.78
2023-03-21T07:04:10.403Z,101186.00
2023-03-21T07:06:38.115Z,101187.63
2023-03-21T07:09:06.539Z,101188.66
2023-03-21T07:11:35.685Z,101188.44
2023-03-21T07:14:04.427Z,101182.72
2023-03-21T07:16:31.687Z,101189.38
2023-03-21T07:18:58.899Z,101194.88
2023-03-21T07:21:26.547Z,101186.25
2023-03-21T07:23:54.018Z,101184.97
2023-03-21T07:26:21.105Z,101194.88
2023-03-21T07:28:48.097Z,101188.56
2023-03-21T07:31:17.262Z,101197.09
2023-03-21T07:33:44.484Z,101191.97
2023-03-21T07:36:15.512Z,101197.09
2023-03-21T07:38:46.504Z,101192.91
2023-03-21T07:41:17.468Z,101198.03
2023-03-21T07:43:44.699Z,101207.13
2023-03-21T07:46:11.813Z,101203.03
2023-03-21T07:48:39.057Z,101203.50
2023-03-21T07:51:07.135Z,101196.84
2023-03-21T07:53:35.763Z,101198.63
2023-03-21T07:56:02.804Z,101200.72
2023-03-21T07:58:29.919Z,101199.44
2023-03-21T08:00:58.546Z,101201.66
2023-03-21T08:03:29.149Z,101198.38
2023-03-21T08:05:56.078Z,101199.44
2023-03-21T08:08:24.042Z,101201.19
2023-03-21T08:10:51.010Z,101192.56
2023-03-21T08:13:17.956Z,101192.69
2023-03-21T08:15:45.594Z,101193.50
2023-03-21T08:18:12.963Z,101192.81
2023-03-21T08:20:39.876Z,101188.50
2023-03-21T08:23:06.928Z,101188.63
2023-03-21T08:25:33.920Z,101183.28
2023-03-21T08:28:01.025Z,101202.50
2023-03-21T08:30:29.327Z,101190.53
2023-03-21T08:33:01.157Z,101204.06
2023-03-21T08:35:30.509Z,101193.22
2023-03-21T08:37:57.937Z,101197.69
2023-03-21T08:40:25.927Z,101184.28
2023-03-21T08:42:53.022Z,101194.88
2023-03-21T08:45:20.438Z,101196.88
2023-03-21T08:47:47.775Z,101198.97
2023-03-21T08:50:19.901Z,101196.16
2023-03-21T08:52:47.830Z,101187.06
2023-03-21T08:55:16.962Z,101183.34
2023-03-21T08:57:44.639Z,101187.78
2023-03-21T09:00:17.168Z,101189.75
2023-03-21T09:02:48.724Z,101189.16
2023-03-21T09:05:17.001Z,101180.31
2023-03-21T09:07:44.574Z,101193.03
2023-03-21T09:10:21.077Z,101194.75
2023-03-21T09:12:50.753Z,101196.41
2023-03-21T09:15:20.206Z,101194.88
2023-03-21T09:17:53.093Z,101193.59
2023-03-21T09:20:26.266Z,101201.84
2023-03-21T09:22:54.176Z,101194.97
2023-03-21T09:25:21.925Z,101204.75
2023-03-21T09:27:49.388Z,101207.78
2023-03-21T09:30:20.798Z,101203.22
2023-03-21T09:32:49.394Z,101197.63
2023-03-21T09:35:19.218Z,101190.97
2023-03-21T09:37:48.252Z,101181.06
2023-03-21T09:40:24.120Z,101195.06
2023-03-21T09:43:25.193Z,101193.75
2023-03-21T09:46:11.527Z,101196.00
2023-03-21T09:48:56.832Z,101189.22
2023-03-21T09:51:29.453Z,101182.13
2023-03-21T09:54:00.751Z,101177.56
2023-03-21T09:56:28.026Z,101182.78
2023-03-21T09:58:59.558Z,101188.13
2023-03-21T10:01:35.076Z,101186.00
2023-03-21T10:04:07.330Z,101175.03
2023-03-21T10:06:41.170Z,101179.78
2023-03-21T10:09:23.962Z,101165.16
2023-03-21T10:11:56.076Z,101179.59
2023-03-21T10:14:32.215Z,101172.31
2023-03-21T10:17:29.005Z,101169.38
2023-03-21T10:20:22.728Z,101168.41
2023-03-21T10:22:55.405Z,101155.56
2023-03-21T10:25:38.048Z,101162.53
2023-03-21T10:28:07.711Z,101164.25
2023-03-21T10:30:43.410Z,101155.19
2023-03-21T10:33:20.980Z,101151.84
2023-03-21T10:35:53.913Z,101153.97
2023-03-21T10:38:25.365Z,101148.75
2023-03-21T10:40:52.734Z,101156.56
2023-03-21T10:43:34.061Z,101154.69
2023-03-21T10:46:09.661Z,101149.31
2023-03-21T10:48:40.496Z,101150.13
2023-03-21T10:51:10.091Z,101140.03
2023-03-21T10:53:42.379Z,101140.28
2023-03-21T10:56:11.247Z,101146.28
2023-03-21T10:58:47.052Z,101131.28
2023-03-21T11:01:30.492Z,101139.75
2023-03-21T11:04:01.440Z,101134.69
2023-03-21T11:06:31.635Z,101143.66
2023-03-21T11:09:16.349Z,101130.84
2023-03-21T11:11:55.944Z,101135.47
2023-03-21T11:14:48.316Z,101131.00
2023-03-21T11:17:18.348Z,101130.91
2023-03-21T11:20:12.520Z,101123.88
2023-03-21T11:22:43.418Z,101134.41
2023-03-21T11:25:21.000Z,101126.94
2023-03-21T11:27:55.526Z,101121.44
2023-03-21T11:30:26.736Z,101120.06
2023-03-21T11:33:02.005Z,101115.25
2023-03-21T11:35:37.290Z,101110.44
2023-03-21T11:38:07.417Z,101101.31
2023-03-21T11:40:39.243Z,101106.06
2023-03-21T11:43:18.308Z,101101.50
2023-03-21T11:46:04.077Z,101099.44
2023-03-21T11:48:42.476Z,101105.44
2023-03-21T11:51:36.696Z,101101.50
2023-03-21T11:54:19.797Z,101093.97
2023-03-21T11:56:54.987Z,101091.34
2023-03-21T11:59:59.641Z,101087.06
2023-03-21T12:03:11.324Z,101086.94
2023-03-21T12:06:02.326Z,101095.88
2023-03-21T12:08:48.524Z,101088.03
2023-03-21T12:11:48.125Z,101078.34
2023-03-21T12:14:43.619Z,101080.47
2023-03-21T12:17:58.161Z,101080.72
2023-03-21T12:20:54.544Z,101075.53
2023-03-21T12:24:11.400Z,101066.66
2023-03-21T12:26:50.266Z,101066.41
2023-03-21T12:29:54.655Z,101062.69
2023-03-21T12:32:27.706Z,101057.06
2023-03-21T12:35:26.854Z,101051.47
2023-03-21T12:38:10.463Z,101056.03
2023-03-21T12:41:15.442Z,101048.25
2023-03-21T12:44:04.890Z,101042.91
2023-03-21T12:47:00.944Z,101047.84
2023-03-21T12:49:35.021Z,101026.28
2023-03-21T12:52:15.509Z,101035.22
2023-03-21T12:55:02.268Z,101035.81
2023-03-21T12:57:44.608Z,101034.28
2023-03-21T13:00:27.387Z,101024.91
2023-03-21T13:03:30.258Z,101020.53
2023-03-21T13:06:06.523Z,101013.47
2023-03-21T13:08:53.023Z,101003.81
2023-03-21T13:11:24.887Z,101015.66
2023-03-21T13:14:03.818Z,101002.50
2023-03-21T13:16:43.950Z,100999.31
2023-03-21T13:20:14.010Z,100990.78
2023-03-21T13:22:41.150Z,100994.56
2023-03-21T13:25:23.862Z,100990.00
2023-03-21T13:27:54.349Z,100979.78
2023-03-21T13:30:26.070Z,100985.41
2023-03-21T13:33:07.742Z,100990.53
2023-03-21T13:35:39.176Z,100983.16
2023-03-21T13:38:20.053Z,100982.03
2023-03-21T13:41:09.691Z,100983.66
2023-03-21T13:44:09.039Z,100979.06
2023-03-21T13:46:53.599Z,100968.78
2023-03-21T13:49:37.561Z,100979.59
2023-03-21T13:52:11.068Z,100976.13
2023-03-21T13:54:52.784Z,100961.88
2023-03-21T13:57:40.805Z,100974.88
2023-03-21T14:00:24.402Z,100963.56
2023-03-21T14:03:13.664Z,100967.09
2023-03-21T14:05:41.774Z,100961.19
2023-03-21T14:08:24.815Z,100966.63
2023-03-21T14:10:59.773Z,100956.63
2023-03-21T14:13:29.659Z,100953.91
2023-03-21T14:16:14.971Z,100953.91
2023-03-21T14:18:54.950Z,100949.59
2023-03-21T14:21:26.733Z,100950.97
2023-03-21T14:24:14.538Z,100955.31
2023-03-21T14:26:47.221Z,100952.28
2023-03-21T14:29:33.602Z,100947.44
2023-03-21T14:32:02.135Z,100947.84
2023-03-21T14:34:33.339Z,100940.00
2023-03-21T14:37:00.407Z,100939.72
2023-03-21T14:39:30.895Z,100941.91
2023-03-21T14:42:08.240Z,100929.88
2023-03-21T14:44:51.264Z,100926.63
2023-03-21T14:47:27.940Z,100926.38
2023-03-21T14:49:56.577Z,100922.94
2023-03-21T14:52:33.962Z,100922.69
2023-03-21T14:55:03.339Z,100914.91
2023-03-21T14:57:33.296Z,100911.41
2023-03-21T15:00:12.849Z,100907.38
2023-03-21T15:02:43.427Z,100910.06
2023-03-21T15:05:20.859Z,100903.38
2023-03-21T15:07:56.592Z,100902.03
2023-03-21T15:10:26.296Z,100897.75
2023-03-21T15:12:58.168Z,100899.38
2023-03-21T15:15:27.745Z,100892.91
2023-03-21T15:17:58.381Z,100880.22
2023-03-21T15:20:28.727Z,100885.94
2023-03-21T15:23:02.247Z,100871.38
2023-03-21T15:25:34.252Z,100876.53
2023-03-21T15:28:02.063Z,100887.88
2023-03-21T15:30:31.743Z,100876.53
2023-03-21T15:33:08.608Z,100879.22
2023-03-21T15:35:46.795Z,100869.25
2023-03-21T15:38:40.598Z,100864.66
2023-03-21T15:41:29.267Z,100868.72
2023-03-21T15:44:02.165Z,100882.72
2023-03-21T15:46:44.239Z,100877.34
2023-03-21T15:49:16.714Z,100867.88
2023-03-21T15:51:53.201Z,100873.28
2023-03-21T15:54:34.879Z,100861.63
2023-03-21T15:57:09.577Z,100870.78
2023-03-21T15:59:41.792Z,100868.88
2023-03-21T16:02:19.862Z,100864.56
2023-03-21T16:05:23.688Z,100866.69
2023-03-21T16:07:51.514Z,100850.78
2023-03-21T16:10:37.600Z,100842.41
2023-03-21T16:13:05.288Z,100847.50
2023-03-21T16:15:32.812Z,100845.09
2023-03-21T16:18:03.557Z,100848.31
2023-03-21T16:20:42.545Z,100843.19
2023-03-21T16:23:12.869Z,100841.56
2023-03-21T16:25:42.034Z,100834.25
2023-03-21T16:28:17.394Z,100848.81
2023-03-21T16:30:45.413Z,100846.91
2023-03-21T16:33:13.396Z,100847.97
2023-03-21T16:35:41.230Z,100849.06
2023-03-21T16:38:12.139Z,100845.81
2023-03-21T16:40:43.437Z,100857.94
2023-03-21T16:43:11.558Z,100849.59
2023-03-21T16:45:38.596Z,100854.72
2023-03-21T16:48:06.237Z,100852.53
2023-03-21T16:50:43.092Z,100860.09
2023-03-21T16:53:10.433Z,100863.56
2023-03-21T16:55:38.752Z,100855.16
2023-03-21T16:58:06.440Z,100857.31
2023-03-21T17:00:33.639Z,100854.88
2023-03-21T17:03:12.725Z,100852.19
2023-03-21T17:05:39.717Z,100845.94
2023-03-21T17:08:06.813Z,100844.88
2023-03-21T17:10:33.992Z,100841.38
2023-03-21T17:13:01.492Z,100838.13
2023-03-21T17:15:28.540Z,100837.06
2023-03-21T17:17:55.707Z,100837.06
2023-03-21T17:20:28.793Z,100836.25
2023-03-21T17:22:55.865Z,100837.88
2023-03-21T17:25:22.789Z,100826.53
2023-03-21T17:27:52.942Z,100841.34
2023-03-21T17:30:33.340Z,100834.06
2023-03-21T17:33:00.527Z,100834.59
2023-03-21T17:35:28.439Z,100834.59
2023-03-21T17:37:58.194Z,100820.81
2023-03-21T17:40:31.483Z,100830.25
2023-03-21T17:43:01.427Z,100827.81
2023-03-21T17:45:28.655Z,100822.97
2023-03-21T17:47:56.374Z,100824.84
2023-03-21T17:50:27.605Z,100820.25
2023-03-21T17:52:57.340Z,100825.91
2023-03-21T17:55:24.889Z,100825.66
2023-03-21T17:57:52.153Z,100820.22
2023-03-21T18:00:25.080Z,100821.03
2023-03-21T18:02:53.236Z,100821.56
2023-03-21T18:05:21.676Z,100818.31
2023-03-21T18:08:10.912Z,100814.28
2023-03-21T18:10:39.788Z,100820.72
2023-03-21T18:13:07.058Z,100808.59
2023-03-21T18:15:35.954Z,100814.25
2023-03-21T18:18:05.167Z,100822.06
2023-03-21T18:23:21.162Z,100815.84
2023-03-21T18:25:49.431Z,100815.84
2023-03-21T18:28:20.356Z,100803.69
2023-03-21T18:31:07.747Z,100812.28
2023-03-21T18:33:41.216Z,100804.72
2023-03-21T18:36:10.787Z,100807.41
2023-03-21T18:38:38.776Z,100809.56
2023-03-21T18:41:07.738Z,100804.16
2023-03-21T18:46:23.794Z,100804.94
2023-03-21T18:48:51.878Z,100807.63
2023-03-21T18:51:19.322Z,100806.81
2023-03-21T18:53:46.379Z,100809.78
2023-03-21T18:56:57.713Z,100796.53
2023-03-21T18:59:01.849Z,100807.56
2023-03-21T19:01:29.170Z,100807.84
2023-03-21T19:04:20.074Z,100809.47
2023-03-21T19:06:47.971Z,100801.94
2023-03-21T19:09:15.262Z,100810.56
2023-03-21T19:11:42.709Z,100810.28
2023-03-21T19:14:12.115Z,100805.72
2023-03-21T19:17:14.825Z,100800.06
2023-03-21T19:19:28.356Z,100808.97
2023-03-21T19:21:55.727Z,100801.94
2023-03-21T19:24:28.364Z,100803.03
2023-03-21T19:26:56.345Z,100804.91
2023-03-21T19:29:23.278Z,100800.59
2023-03-21T19:31:52.063Z,100809.47
2023-03-21T19:34:19.468Z,100803.28
2023-03-21T19:36:51.680Z,100807.28
2023-03-21T19:39:22.776Z,100812.69
2023-03-21T19:41:51.176Z,100807.31
2023-03-21T19:44:19.511Z,100818.34
2023-03-21T19:46:48.343Z,100801.84
2023-03-21T19:49:20.277Z,100802.13
2023-03-21T19:51:49.253Z,100811.50
2023-03-21T19:54:19.304Z,100803.69
2023-03-21T19:56:48.195Z,100802.06
2023-03-21T19:59:17.251Z,100798.84
2023-03-21T20:01:45.807Z,100807.16
2023-03-21T20:04:14.703Z,100802.28
2023-03-21T20:06:41.874Z,100798.78
2023-03-21T20:12:00.377Z,100785.22
2023-03-21T20:14:27.558Z,100799.16
2023-03-21T20:16:56.833Z,100804.81
2023-03-21T20:19:24.898Z,100806.94
2023-03-21T20:21:58.758Z,100806.09
2023-03-21T20:24:27.645Z,100804.97
2023-03-21T20:26:55.548Z,100796.59
2023-03-21T20:32:11.242Z,100803.31
2023-03-21T20:34:38.305Z,100801.38
2023-03-21T20:37:06.334Z,100806.72
2023-03-21T20:39:33.633Z,100805.66
2023-03-21T20:42:00.828Z,100802.91
2023-03-21T20:44:51.808Z,100809.59
2023-03-21T20:47:15.926Z,100809.00
2023-03-21T20:49:43.109Z,100796.59
2023-03-21T20:54:57.586Z,100802.66
2023-03-21T20:57:27.253Z,100813.38
2023-03-21T20:59:55.535Z,100809.31
2023-03-21T21:02:23.737Z,100811.38
2023-03-21T21:05:17.732Z,100815.38
2023-03-21T21:07:41.552Z,100810.97
2023-03-21T21:10:14.145Z,100807.97
2023-03-21T21:12:45.054Z,100801.50
2023-03-21T21:15:14.770Z,100791.00
2023-03-21T21:20:28.675Z,100800.63
2023-03-21T21:23:00.696Z,100795.19
2023-03-21T21:25:31.676Z,100778.19
2023-03-21T21:27:59.002Z,100787.94
2023-03-21T21:30:25.897Z,100784.38
2023-03-21T21:32:53.932Z,100790.06
2023-03-21T21:35:22.321Z,100787.88
2023-03-21T21:37:51.017Z,100784.63
2023-03-21T21:40:20.598Z,100785.44
2023-03-21T21:42:48.061Z,100790.25
2023-03-21T21:45:15.888Z,100795.06
2023-03-21T21:47:45.757Z,100795.78
2023-03-21T21:50:13.262Z,100789.59
2023-03-21T21:52:43.871Z,100791.22
2023-03-21T21:55:13.310Z,100776.41
2023-03-21T21:57:40.990Z,100782.59
2023-03-21T22:00:13.370Z,100782.84
2023-03-21T22:02:41.509Z,100770.75
2023-03-21T22:05:09.491Z,100774.22
2023-03-21T22:07:38.792Z,100768.06
2023-03-21T22:10:06.636Z,100779.59
2023-03-21T22:12:33.790Z,100764.25
2023-03-21T22:15:00.881Z,100770.69
2023-03-21T22:17:28.053Z,100770.69
2023-03-21T22:20:05.093Z,100772.00
2023-03-21T22:22:37.066Z,100772.81
2023-03-21T22:25:06.418Z,100767.69
2023-03-21T22:27:33.946Z,100763.38
2023-03-21T22:30:05.119Z,100777.03
2023-03-21T22:32:33.572Z,100783.47
2023-03-21T22:35:03.295Z,100780.47
2023-03-21T22:37:36.393Z,100779.66
2023-03-21T22:40:08.144Z,100786.91
2023-03-21T22:42:36.425Z,100772.59
2023-03-21T22:45:06.057Z,100780.41
2023-03-21T22:47:33.513Z,100780.91
2023-03-21T22:50:00.518Z,100769.84
2023-03-21T22:52:27.669Z,100779.59
2023-03-21T22:54:54.824Z,100770.41
2023-03-21T22:57:21.880Z,100769.91
2023-03-21T22:59:48.888Z,100767.81
2023-03-21T23:02:16.488Z,100764.31
2023-03-21T23:04:43.448Z,100771.84
2023-03-21T23:07:10.817Z,100777.78
2023-03-21T23:09:37.909Z,100776.97
2023-03-21T23:12:05.269Z,100777.22
2023-03-21T23:14:32.322Z,100770.47
2023-03-21T23:17:00.147Z,100776.41
2023-03-21T23:19:29.088Z,100760.81
2023-03-21T23:21:56.928Z,100768.84
2023-03-21T23:24:24.362Z,100769.66
2023-03-21T23:26:51.443Z,100783.91
2023-03-21T23:29:18.552Z,100767.25
2023-03-21T23:31:45.660Z,100752.13
2023-03-21T23:34:13.348Z,100748.63
2023-03-21T23:36:40.739Z,100755.94
2023-03-21T23:39:07.885Z,100764.00
2023-03-21T23:41:35.379Z,100758.31
2023-03-21T23:44:02.503Z,100764.50
2023-03-21T23:46:29.672Z,100754.81
2023-03-21T23:48:56.936Z,100751.31
2023-03-21T23:51:23.969Z,100754.06
2023-03-21T23:53:53.428Z,100740.81
2023-03-21T23:56:24.403Z,100740.59
2023-03-21T23:58:51.639Z,100729.28
